createdAt,value
2022-11-09T00:02:59.020Z,1.00
2022-11-09T00:08:01.748Z,2.00
2022-11-09T00:13:04.681Z,1.20
2022-11-09T00:18:11.705Z,1.00
2022-11-09T00:23:14.312Z,1.00
2022-11-09T00:28:17.020Z,1.00
2022-11-09T00:33:21.230Z,1.00
2022-11-09T00:38:24.079Z,1.00
2022-11-09T00:43:26.733Z,1.00
2022-11-09T00:48:30.865Z,2.00
2022-11-09T00:53:33.532Z,1.00
2022-11-09T00:58:37.621Z,1.00
2022-11-09T01:03:41.899Z,0.20
2022-11-09T01:08:44.729Z,1.80
2022-11-09T01:13:47.433Z,1.00
2022-11-09T01:18:55.559Z,1.40
2022-11-09T01:24:01.590Z,1.00
2022-11-09T01:29:04.267Z,1.40
2022-11-09T01:34:10.518Z,1.00
2022-11-09T01:39:13.132Z,1.00
2022-11-09T01:44:16.900Z,1.40
2022-11-09T01:49:37.564Z,1.00
2022-11-09T01:54:41.288Z,1.00
2022-11-09T01:59:45.909Z,0.80
2022-11-09T02:04:51.169Z,1.00
2022-11-09T02:09:56.735Z,1.00
2022-11-09T02:15:01.183Z,0.80
2022-11-09T02:20:09.251Z,1.00
2022-11-09T02:25:11.918Z,0.20
2022-11-09T02:30:14.979Z,1.00
2022-11-09T02:35:21.275Z,0.60
2022-11-09T02:40:25.464Z,1.00
2022-11-09T02:45:29.442Z,1.00
2022-11-09T02:50:33.515Z,1.00
2022-11-09T02:55:36.238Z,1.00
2022-11-09T03:00:38.953Z,0.80
2022-11-09T03:05:44.778Z,1.00
2022-11-09T03:10:49.197Z,1.00
2022-11-09T03:15:52.322Z,1.00
2022-11-09T03:20:56.443Z,0.80
2022-11-09T03:25:59.132Z,0.40
2022-11-09T03:31:02.073Z,0.40
2022-11-09T03:36:07.602Z,0.60
2022-11-09T03:41:10.330Z,0.80
2022-11-09T03:46:13.308Z,0.00
2022-11-09T03:51:18.517Z,0.00
2022-11-09T03:56:21.133Z,1.00
2022-11-09T04:01:23.816Z,0.80
2022-11-09T04:06:27.930Z,1.00
2022-11-09T04:11:30.738Z,1.00
2022-11-09T04:16:33.355Z,1.00
2022-11-09T04:21:37.351Z,1.00
2022-11-09T04:26:39.922Z,0.60
2022-11-09T04:31:42.580Z,1.00
2022-11-09T04:36:46.732Z,0.00
2022-11-09T04:41:49.348Z,0.60
2022-11-09T04:46:52.002Z,0.40
2022-11-09T04:51:55.964Z,0.60
2022-11-09T04:56:58.552Z,0.60
2022-11-09T05:02:01.407Z,0.00
2022-11-09T05:07:05.447Z,0.40
2022-11-09T05:12:08.937Z,0.40
2022-11-09T05:17:11.545Z,0.00
2022-11-09T05:22:33.315Z,0.00
2022-11-09T05:27:36.119Z,0.00
2022-11-09T05:32:39.941Z,0.00
2022-11-09T05:37:43.967Z,0.20
2022-11-09T05:42:46.949Z,0.40
2022-11-09T05:47:49.612Z,1.00
2022-11-09T05:52:54.426Z,0.00
2022-11-09T05:57:57.123Z,0.00
2022-11-09T06:03:03.154Z,0.20
2022-11-09T06:08:10.763Z,0.00
2022-11-09T06:13:13.469Z,0.00
2022-11-09T06:18:16.047Z,0.20
2022-11-09T06:23:20.438Z,0.60
2022-11-09T06:28:23.381Z,0.00
2022-11-09T06:33:26.217Z,0.00
2022-11-09T06:38:30.292Z,0.20
2022-11-09T06:43:33.194Z,0.00
2022-11-09T06:48:36.056Z,0.00
2022-11-09T06:53:41.345Z,0.00
2022-11-09T06:58:45.006Z,0.00
2022-11-09T07:03:47.707Z,0.00
2022-11-09T07:08:51.755Z,0.00
2022-11-09T07:13:57.405Z,0.00
2022-11-09T07:19:00.575Z,0.00
2022-11-09T07:24:04.878Z,0.20
2022-11-09T07:29:07.720Z,1.00
2022-11-09T07:34:10.329Z,0.00
2022-11-09T07:39:14.282Z,0.20
2022-11-09T07:44:18.363Z,1.00
2022-11-09T07:49:21.186Z,0.00
2022-11-09T07:54:25.761Z,1.00
2022-11-09T07:59:28.433Z,1.00
2022-11-09T08:04:31.053Z,0.00
2022-11-09T08:09:35.334Z,0.40
2022-11-09T08:14:38.010Z,1.00
2022-11-09T08:19:40.643Z,0.00
2022-11-09T08:24:44.601Z,1.00
2022-11-09T08:29:47.294Z,0.80
2022-11-09T08:34:50.007Z,1.00
2022-11-09T08:39:53.964Z,1.00
2022-11-09T08:44:56.596Z,0.00
2022-11-09T08:49:59.191Z,1.00
2022-11-09T08:55:03.483Z,0.00
2022-11-09T09:00:07.422Z,1.00
2022-11-09T09:05:10.272Z,1.00
2022-11-09T09:10:14.307Z,0.00
2022-11-09T09:15:17.035Z,0.00
2022-11-09T09:20:19.893Z,0.00
2022-11-09T09:25:24.705Z,0.00
2022-11-09T09:30:27.335Z,2.60
2022-11-09T09:35:29.972Z,4.60
2022-11-09T09:40:37.885Z,2.80
2022-11-09T09:45:40.538Z,4.40
2022-11-09T09:50:46.654Z,3.00
2022-11-09T09:55:54.316Z,3.80
2022-11-09T10:00:59.566Z,2.80
2022-11-09T10:06:06.333Z,3.20
2022-11-09T10:11:16.392Z,2.80
2022-11-09T10:16:22.198Z,2.00
2022-11-09T10:21:32.926Z,2.00
2022-11-09T10:26:40.915Z,1.80
2022-11-09T10:31:43.878Z,2.00
2022-11-09T10:36:49.162Z,2.00
2022-11-09T10:41:54.756Z,2.00
2022-11-09T10:47:17.147Z,2.00
2022-11-09T10:52:46.173Z,2.00
2022-11-09T10:58:21.501Z,1.20
2022-11-09T11:03:43.299Z,1.00
2022-11-09T11:09:20.870Z,1.20
2022-11-09T11:14:45.113Z,1.00
2022-11-09T11:20:29.218Z,1.00
2022-11-09T11:25:58.968Z,1.00
2022-11-09T11:31:21.796Z,1.60
2022-11-09T11:36:50.589Z,1.00
2022-11-09T11:42:31.926Z,1.00
2022-11-09T11:47:58.531Z,1.00
2022-11-09T11:53:29.135Z,1.00
2022-11-09T11:59:03.910Z,2.00
2022-11-09T12:04:37.534Z,2.00
2022-11-09T12:10:15.452Z,2.00
2022-11-09T12:15:45.709Z,1.00
2022-11-09T12:21:14.726Z,1.00
2022-11-09T12:26:44.999Z,1.80
2022-11-09T12:32:14.614Z,1.00
2022-11-09T12:37:41.971Z,1.20
2022-11-09T12:43:05.272Z,1.00
2022-11-09T12:48:29.166Z,1.00
2022-11-09T12:53:52.200Z,1.00
2022-11-09T12:59:23.575Z,2.00
2022-11-09T13:04:55.521Z,1.00
2022-11-09T13:10:32.229Z,1.00
2022-11-09T13:16:11.327Z,1.80
2022-11-09T13:21:37.534Z,1.00
2022-11-09T13:27:01.366Z,1.00
2022-11-09T13:32:26.185Z,1.00
2022-11-09T13:37:49.351Z,0.80
2022-11-09T13:43:24.050Z,1.00
2022-11-09T13:48:45.414Z,1.00
2022-11-09T13:54:06.735Z,1.00
2022-11-09T13:59:30.907Z,0.20
2022-11-09T14:04:52.103Z,1.00
2022-11-09T14:10:16.743Z,1.00
2022-11-09T14:15:43.671Z,0.40
2022-11-09T14:21:18.640Z,1.00
2022-11-09T14:26:39.762Z,1.00
2022-11-09T14:32:03.269Z,1.00
2022-11-09T14:37:24.534Z,1.00
2022-11-09T14:42:49.164Z,0.80
2022-11-09T14:48:17.042Z,0.80
2022-11-09T14:53:39.186Z,1.00
2022-11-09T14:59:02.113Z,0.00
2022-11-09T15:04:26.912Z,1.00
2022-11-09T15:09:52.434Z,0.00
2022-11-09T15:15:19.552Z,0.00
2022-11-09T15:20:42.070Z,0.20
2022-11-09T15:26:03.543Z,0.00
2022-11-09T15:31:27.694Z,0.80
2022-11-09T15:36:55.265Z,0.00
2022-11-09T15:42:16.416Z,1.00
2022-11-09T15:47:38.561Z,1.00
2022-11-09T15:53:01.289Z,0.00
2022-11-09T15:58:23.230Z,1.00
2022-11-09T16:03:44.738Z,1.00
2022-11-09T16:09:07.537Z,1.00
2022-11-09T16:14:32.294Z,1.00
2022-11-09T16:19:54.152Z,1.00
2022-11-09T16:25:16.982Z,1.00
2022-11-09T16:30:41.567Z,1.00
2022-11-09T16:36:07.087Z,0.80
2022-11-09T16:41:30.083Z,1.00
2022-11-09T16:46:52.118Z,1.00
2022-11-09T16:52:13.540Z,1.00
2022-11-09T16:57:36.318Z,6.80
2022-11-09T17:02:57.609Z,3.00
2022-11-09T17:08:19.713Z,3.00
2022-11-09T17:13:42.592Z,4.60
2022-11-09T17:19:06.142Z,4.60
2022-11-09T17:24:27.371Z,3.00
2022-11-09T17:29:50.141Z,3.00
2022-11-09T17:35:11.591Z,3.00
2022-11-09T17:40:32.797Z,2.60
2022-11-09T17:45:55.830Z,2.80
2022-11-09T17:51:17.993Z,3.20
2022-11-09T17:56:39.817Z,3.00
2022-11-09T18:02:02.564Z,3.00
2022-11-09T18:07:25.229Z,3.00
2022-11-09T18:12:46.720Z,3.00
2022-11-09T18:18:09.613Z,2.00
2022-11-09T18:23:31.095Z,2.00
2022-11-09T18:28:52.514Z,3.00
2022-11-09T18:34:15.703Z,2.80
2022-11-09T18:39:36.862Z,2.00
2022-11-09T18:44:58.620Z,2.00
2022-11-09T18:50:21.801Z,1.40
2022-11-09T18:55:43.204Z,3.00
2022-11-09T19:01:07.254Z,2.00
2022-11-09T19:06:29.785Z,1.80
2022-11-09T19:11:51.453Z,2.00
2022-11-09T19:17:13.678Z,1.00
2022-11-09T19:22:36.784Z,1.40
2022-11-09T19:27:58.085Z,2.00
2022-11-09T19:33:19.539Z,2.00
2022-11-09T19:38:44.791Z,2.20
2022-11-09T19:44:07.139Z,1.00
2022-11-09T19:49:28.383Z,1.80
2022-11-09T19:54:50.921Z,1.00
2022-11-09T20:00:13.573Z,1.20
2022-11-09T20:05:35.038Z,2.00
2022-11-09T20:10:57.657Z,1.40
2022-11-09T20:16:19.047Z,2.00
2022-11-09T20:21:41.218Z,1.40
2022-11-09T20:27:03.993Z,1.80
2022-11-09T20:32:25.549Z,1.20
2022-11-09T20:37:46.951Z,1.20
2022-11-09T20:43:09.793Z,1.00
2022-11-09T20:48:52.629Z,2.00
2022-11-09T20:54:12.487Z,2.00
2022-11-09T20:59:35.222Z,1.00
2022-11-09T21:04:56.383Z,1.00
2022-11-09T21:10:18.661Z,1.00
2022-11-09T21:15:41.604Z,1.60
2022-11-09T21:21:07.172Z,1.00
2022-11-09T21:26:45.948Z,1.00
2022-11-09T21:32:08.910Z,1.00
2022-11-09T21:37:30.425Z,1.00
2022-11-09T21:42:52.047Z,1.00
2022-11-09T21:48:14.807Z,1.00
2022-11-09T21:53:37.089Z,1.00
2022-11-09T21:58:58.332Z,1.00
2022-11-09T22:04:21.024Z,1.40
2022-11-09T22:10:08.176Z,1.00
2022-11-09T22:15:41.044Z,1.00
2022-11-09T22:21:04.086Z,1.00
2022-11-09T22:26:25.593Z,1.00
2022-11-09T22:31:47.327Z,1.20
2022-11-09T22:37:09.868Z,1.00
2022-11-09T22:42:34.647Z,2.00
2022-11-09T22:47:56.115Z,1.00
2022-11-09T22:53:19.099Z,1.00
2022-11-09T22:58:40.844Z,1.00
2022-11-09T23:04:02.444Z,1.20
2022-11-09T23:09:25.304Z,0.80
2022-11-09T23:15:05.098Z,1.00
2022-11-09T23:20:29.941Z,0.60
2022-11-09T23:25:56.415Z,1.20
2022-11-09T23:31:19.426Z,1.00
2022-11-09T23:36:40.732Z,1.00
2022-11-09T23:42:03.569Z,1.00
2022-11-09T23:47:24.794Z,1.00
2022-11-09T23:52:46.192Z,1.00
2022-11-09T23:58:08.999Z,0.00
